Time;durP1;ratioP1;P1;durP2;ratioP2;P2;SDS_P1;SDS_P2;PMS_P1;PMS_P2;Temp;Humidity;BMP_temperature;BMP_pressure;BME280_temperature;BME280_humidity;BME280_pressure;Samples;Min_cycle;Max_cycle;Signal;HPM_P1;HPM_P2
2023/03/19 00:01:04;;;;;;;1.85;1.75;;;10.50;99.90;;;;;;5073174;28;20048;-76
2023/03/19 00:03:30;;;;;;;1.85;1.75;;;10.60;99.90;;;;;;5058691;28;20051;-76
2023/03/19 00:05:55;;;;;;;1.70;1.60;;;10.60;99.90;;;;;;5058300;28;20043;-76
2023/03/19 00:08:21;;;;;;;1.73;1.63;;;10.50;99.90;;;;;;5073109;28;20048;-76
2023/03/19 00:10:48;;;;;;;1.75;1.65;;;10.50;99.90;;;;;;5045496;28;20048;-76
2023/03/19 00:13:13;;;;;;;1.83;1.73;;;10.50;99.90;;;;;;5056305;28;20067;-76
2023/03/19 00:15:39;;;;;;;1.77;1.67;;;10.40;99.90;;;;;;5070858;28;20123;-76
2023/03/19 00:18:05;;;;;;;1.88;1.77;;;10.40;99.90;;;;;;5068991;28;20052;-76
2023/03/19 00:20:31;;;;;;;1.77;1.67;;;10.40;99.90;;;;;;5068674;28;20050;-76
2023/03/19 00:22:57;;;;;;;1.73;1.63;;;10.40;99.90;;;;;;5047387;28;20133;-76
2023/03/19 00:25:23;;;;;;;1.65;1.55;;;10.40;99.90;;;;;;5073702;28;20186;-76
2023/03/19 00:27:49;;;;;;;1.70;1.60;;;10.40;99.90;;;;;;5050696;28;20554;-76
2023/03/19 00:30:15;;;;;;;1.92;1.83;;;10.50;99.90;;;;;;5061425;28;20516;-76
2023/03/19 00:32:40;;;;;;;1.67;1.58;;;10.50;99.90;;;;;;5071717;28;20048;-75
2023/03/19 00:35:07;;;;;;;1.75;1.65;;;10.50;99.90;;;;;;5074051;28;20131;-76
2023/03/19 00:37:36;;;;;;;1.73;1.63;;;10.50;99.90;;;;;;5071871;28;20090;-76
2023/03/19 00:40:03;;;;;;;1.75;1.65;;;10.50;99.90;;;;;;5071168;28;20032;-76
2023/03/19 00:42:30;;;;;;;1.75;1.65;;;10.60;99.90;;;;;;5071006;28;20489;-76
2023/03/19 00:44:55;;;;;;;1.90;1.80;;;10.60;99.90;;;;;;5071493;28;20044;-75
2023/03/19 00:47:22;;;;;;;1.75;1.65;;;10.60;99.90;;;;;;5073036;28;20086;-76
2023/03/19 00:49:47;;;;;;;1.65;1.55;;;10.60;99.90;;;;;;5069148;28;20040;-76
2023/03/19 00:52:13;;;;;;;1.67;1.58;;;10.60;99.90;;;;;;5071819;28;20047;-75
2023/03/19 00:54:39;;;;;;;1.83;1.73;;;10.60;99.90;;;;;;5070701;28;20048;-75
2023/03/19 00:57:05;;;;;;;1.85;1.75;;;10.70;99.90;;;;;;5054720;28;20174;-76
2023/03/19 00:59:31;;;;;;;2.03;1.92;;;10.60;99.90;;;;;;5052115;28;20048;-75
2023/03/19 01:01:56;;;;;;;1.67;1.58;;;10.70;99.90;;;;;;5066141;28;20123;-76
2023/03/19 01:04:22;;;;;;;1.65;1.55;;;10.70;99.90;;;;;;5051101;28;20422;-76
2023/03/19 01:06:48;;;;;;;1.63;1.52;;;10.70;99.90;;;;;;5073561;28;20101;-75
2023/03/19 01:09:14;;;;;;;1.67;1.58;;;10.70;99.90;;;;;;5067816;28;20502;-76
2023/03/19 01:11:40;;;;;;;1.67;1.58;;;10.70;99.90;;;;;;5062013;28;20412;-76
2023/03/19 01:14:06;;;;;;;1.70;1.60;;;10.70;99.90;;;;;;5037688;28;20040;-76
2023/03/19 01:16:33;;;;;;;1.75;1.65;;;10.70;99.90;;;;;;5057565;28;20681;-76
2023/03/19 01:19:00;;;;;;;1.67;1.58;;;10.70;99.90;;;;;;5057922;28;20302;-76
2023/03/19 01:21:26;;;;;;;1.73;1.63;;;10.80;99.90;;;;;;5039486;28;20498;-75
2023/03/19 01:23:52;;;;;;;1.58;1.48;;;10.80;99.90;;;;;;5060534;28;20519;-76
2023/03/19 01:26:18;;;;;;;1.75;1.65;;;10.80;99.90;;;;;;5060403;28;20048;-75
2023/03/19 01:28:43;;;;;;;1.67;1.58;;;10.80;99.90;;;;;;5059880;28;20028;-75
2023/03/19 01:31:10;;;;;;;1.65;1.55;;;10.80;99.90;;;;;;5056005;28;20071;-75
2023/03/19 01:33:36;;;;;;;1.73;1.63;;;10.80;99.90;;;;;;5060001;28;20038;-75
2023/03/19 01:36:04;;;;;;;1.65;1.55;;;10.90;99.90;;;;;;5063507;28;20083;-76
2023/03/19 01:38:30;;;;;;;1.63;1.52;;;10.80;99.90;;;;;;5040789;28;20086;-75
2023/03/19 01:40:56;;;;;;;1.65;1.55;;;10.80;99.90;;;;;;5061332;28;20139;-75
2023/03/19 01:43:26;;;;;;;1.60;1.50;;;10.80;99.90;;;;;;5059284;28;20044;-75
2023/03/19 01:45:57;;;;;;;1.67;1.58;;;10.80;99.90;;;;;;5061025;28;20066;-76
2023/03/19 01:48:40;;;;;;;1.67;1.58;;;10.80;99.90;;;;;;5059380;28;20126;-75
2023/03/19 01:51:09;;;;;;;1.70;1.60;;;10.90;99.90;;;;;;5060815;28;20048;-75
2023/03/19 01:53:38;;;;;;;1.65;1.55;;;10.90;99.90;;;;;;5060673;28;20036;-75
2023/03/19 01:56:35;;;;;;;1.73;1.63;;;11.00;99.90;;;;;;5059774;28;20052;-75
2023/03/19 01:59:13;;;;;;;1.80;1.70;;;11.00;99.90;;;;;;5046869;28;20090;-75
2023/03/19 02:01:52;;;;;;;1.83;1.73;;;10.90;99.90;;;;;;5050538;28;20032;-75
2023/03/19 02:04:19;;;;;;;1.67;1.58;;;11.00;99.90;;;;;;5062243;28;20109;-75
2023/03/19 02:06:45;;;;;;;1.75;1.65;;;11.00;99.90;;;;;;5059049;28;20655;-75
2023/03/19 02:09:13;;;;;;;1.70;1.60;;;11.00;99.90;;;;;;5061528;28;20048;-75
2023/03/19 02:11:39;;;;;;;1.80;1.70;;;10.90;99.90;;;;;;5058863;28;20048;-75
2023/03/19 02:14:06;;;;;;;1.77;1.67;;;11.00;99.90;;;;;;5036552;28;20047;-75
2023/03/19 02:16:32;;;;;;;1.65;1.55;;;10.90;99.90;;;;;;5059034;28;20108;-75
2023/03/19 02:18:57;;;;;;;1.60;1.50;;;10.90;99.90;;;;;;5055935;28;20060;-75
2023/03/19 02:21:23;;;;;;;1.67;1.58;;;10.90;99.90;;;;;;5041143;28;20067;-75
2023/03/19 02:24:20;;;;;;;1.67;1.58;;;10.80;99.90;;;;;;5058574;28;20080;-75
2023/03/19 02:26:46;;;;;;;1.88;1.77;;;10.80;99.90;;;;;;5058974;28;20048;-75
2023/03/19 02:29:12;;;;;;;1.70;1.60;;;10.80;99.90;;;;;;5057011;28;20072;-76
2023/03/19 02:31:38;;;;;;;1.70;1.60;;;10.80;99.90;;;;;;5057614;28;20044;-75
2023/03/19 02:34:13;;;;;;;1.75;1.65;;;10.70;99.90;;;;;;5060077;28;20055;-75
2023/03/19 02:36:44;;;;;;;1.90;1.80;;;10.80;99.90;;;;;;5059351;28;20431;-75
2023/03/19 02:39:18;;;;;;;1.85;1.75;;;10.70;99.90;;;;;;5058396;28;20043;-75
2023/03/19 02:41:45;;;;;;;1.65;1.55;;;10.70;99.90;;;;;;5054372;28;20040;-75
2023/03/19 02:44:11;;;;;;;1.67;1.58;;;10.70;99.90;;;;;;5041580;28;20093;-76
2023/03/19 02:46:37;;;;;;;1.73;1.63;;;10.70;99.90;;;;;;5040851;28;20044;-75
2023/03/19 02:49:04;;;;;;;1.63;1.52;;;10.60;99.90;;;;;;5058419;28;20052;-75
2023/03/19 02:51:30;;;;;;;1.75;1.65;;;10.60;99.90;;;;;;5057505;28;20056;-75
2023/03/19 02:53:55;;;;;;;1.60;1.50;;;10.60;99.90;;;;;;5057699;28;20047;-75
2023/03/19 02:56:22;;;;;;;1.67;1.58;;;10.60;99.90;;;;;;5043187;28;20046;-75
2023/03/19 02:58:48;;;;;;;1.55;1.45;;;10.60;99.90;;;;;;5059974;28;20574;-76
2023/03/19 03:01:14;;;;;;;1.67;1.58;;;10.60;99.90;;;;;;5056953;28;20049;-76
2023/03/19 03:03:40;;;;;;;1.70;1.60;;;10.50;99.90;;;;;;5056989;28;20098;-76
2023/03/19 03:06:06;;;;;;;1.55;1.45;;;10.50;99.90;;;;;;5061013;28;20093;-76
2023/03/19 03:08:32;;;;;;;1.65;1.55;;;10.40;99.90;;;;;;5063247;28;20036;-76
2023/03/19 03:10:58;;;;;;;1.50;1.42;;;10.40;99.90;;;;;;5062660;28;20050;-76
2023/03/19 03:13:24;;;;;;;1.55;1.45;;;10.40;99.90;;;;;;5056023;28;20071;-75
2023/03/19 03:15:50;;;;;;;1.58;1.48;;;10.40;99.90;;;;;;5047465;28;20052;-76
2023/03/19 03:18:16;;;;;;;1.65;1.55;;;10.40;99.90;;;;;;5046611;28;20036;-76
2023/03/19 03:20:42;;;;;;;1.63;1.52;;;10.30;99.90;;;;;;5063692;28;20043;-76
2023/03/19 03:23:07;;;;;;;1.67;1.58;;;10.30;99.90;;;;;;5063363;28;20500;-76
2023/03/19 03:25:34;;;;;;;1.70;1.60;;;10.20;99.90;;;;;;5063766;28;20069;-76
2023/03/19 03:28:00;;;;;;;1.55;1.45;;;10.10;99.90;;;;;;5045663;28;20918;-75
2023/03/19 03:30:26;;;;;;;1.60;1.50;;;10.20;99.90;;;;;;5064065;28;20048;-75
2023/03/19 03:32:51;;;;;;;1.50;1.42;;;10.10;99.90;;;;;;5062028;28;20546;-75
2023/03/19 03:35:21;;;;;;;1.65;1.55;;;10.10;99.90;;;;;;5064048;28;20029;-75
2023/03/19 03:37:50;;;;;;;1.75;1.65;;;10.10;99.90;;;;;;5064286;28;20040;-76
2023/03/19 03:40:16;;;;;;;1.63;1.52;;;10.10;99.90;;;;;;5040810;28;20067;-75
2023/03/19 03:42:43;;;;;;;1.60;1.50;;;10.00;99.90;;;;;;5061474;28;20155;-75
2023/03/19 03:45:09;;;;;;;1.63;1.52;;;10.10;99.90;;;;;;5059691;28;20044;-75
2023/03/19 03:47:36;;;;;;;1.67;1.58;;;10.10;99.90;;;;;;5044200;28;20047;-76
2023/03/19 03:50:06;;;;;;;1.48;1.40;;;10.10;99.90;;;;;;5041917;28;20052;-75
2023/03/19 03:52:33;;;;;;;1.52;1.42;;;10.10;99.90;;;;;;5041606;28;20135;-75
2023/03/19 03:54:59;;;;;;;1.40;1.35;;;10.10;99.90;;;;;;5062163;28;20969;-75
2023/03/19 03:57:26;;;;;;;1.25;1.25;;;10.10;99.90;;;;;;5064746;28;20500;-76
2023/03/19 03:59:52;;;;;;;1.27;1.27;;;10.20;99.90;;;;;;5049665;28;20161;-76
2023/03/19 04:02:18;;;;;;;1.30;1.30;;;10.20;99.90;;;;;;5062517;28;20474;-75
2023/03/19 04:04:44;;;;;;;1.30;1.30;;;10.20;99.90;;;;;;5057068;28;20066;-75
2023/03/19 04:07:09;;;;;;;1.33;1.33;;;10.20;99.90;;;;;;5027373;28;20174;-75
2023/03/19 04:09:36;;;;;;;1.35;1.33;;;10.20;99.90;;;;;;5061194;28;20520;-76
2023/03/19 04:12:01;;;;;;;1.50;1.40;;;10.20;99.90;;;;;;5060668;28;20044;-76
2023/03/19 04:14:27;;;;;;;1.48;1.40;;;10.20;99.90;;;;;;5057341;28;20051;-75
2023/03/19 04:16:53;;;;;;;1.25;1.25;;;10.20;99.90;;;;;;5054705;28;20706;-75
2023/03/19 04:19:19;;;;;;;1.23;1.23;;;10.20;99.90;;;;;;5061261;28;20043;-75
2023/03/19 04:21:45;;;;;;;1.40;1.38;;;10.30;99.90;;;;;;5055350;28;20047;-75
2023/03/19 04:24:11;;;;;;;1.42;1.38;;;10.30;99.90;;;;;;5043246;28;20614;-75
2023/03/19 04:26:37;;;;;;;1.30;1.30;;;10.30;99.90;;;;;;5060218;28;20453;-75
2023/03/19 04:29:04;;;;;;;1.33;1.33;;;10.30;99.90;;;;;;5063868;28;20492;-75
2023/03/19 04:31:29;;;;;;;1.27;1.27;;;10.30;99.90;;;;;;5041091;28;20048;-75
2023/03/19 04:33:55;;;;;;;1.20;1.20;;;10.40;99.90;;;;;;5063427;28;20472;-76
2023/03/19 04:36:21;;;;;;;1.23;1.23;;;10.30;99.90;;;;;;5061963;28;20456;-76
2023/03/19 04:38:47;;;;;;;1.17;1.17;;;10.30;99.90;;;;;;5043796;28;20090;-75
2023/03/19 04:41:15;;;;;;;1.23;1.23;;;10.30;99.90;;;;;;5059355;28;20440;-76
2023/03/19 04:43:40;;;;;;;1.23;1.23;;;10.40;99.90;;;;;;5050378;28;20048;-76
2023/03/19 04:46:07;;;;;;;1.20;1.20;;;10.30;99.90;;;;;;5072683;28;20041;-75
2023/03/19 04:48:34;;;;;;;1.30;1.30;;;10.30;99.90;;;;;;5077546;28;20098;-75
2023/03/19 04:51:02;;;;;;;1.27;1.27;;;10.30;99.90;;;;;;5076495;28;20144;-75
2023/03/19 04:53:28;;;;;;;1.20;1.20;;;10.40;99.90;;;;;;5055534;28;20689;-75
2023/03/19 04:55:54;;;;;;;1.20;1.20;;;10.40;99.90;;;;;;5072685;28;20063;-75
2023/03/19 04:58:21;;;;;;;1.23;1.23;;;10.40;99.90;;;;;;5076577;28;20056;-75
2023/03/19 05:00:47;;;;;;;1.23;1.23;;;10.30;99.90;;;;;;5072089;28;20482;-75
2023/03/19 05:03:14;;;;;;;1.30;1.30;;;10.20;99.90;;;;;;5074564;28;20055;-75
2023/03/19 05:05:39;;;;;;;1.38;1.38;;;10.10;99.90;;;;;;5078488;28;20051;-76
2023/03/19 05:08:06;;;;;;;1.30;1.30;;;10.10;99.90;;;;;;5077498;28;20048;-77
2023/03/19 05:10:33;;;;;;;1.20;1.20;;;10.20;99.90;;;;;;5058692;28;20127;-77
2023/03/19 05:12:58;;;;;;;1.30;1.30;;;10.20;99.90;;;;;;5076815;28;20059;-76
2023/03/19 05:15:24;;;;;;;1.20;1.20;;;10.20;99.90;;;;;;5079036;28;20048;-76
2023/03/19 05:17:50;;;;;;;1.30;1.30;;;10.20;99.90;;;;;;5062737;28;20109;-76
2023/03/19 05:20:16;;;;;;;1.23;1.23;;;10.20;99.90;;;;;;5077147;28;20512;-76
2023/03/19 05:22:42;;;;;;;1.50;1.40;;;10.10;99.90;;;;;;5060115;28;20051;-76
2023/03/19 05:25:08;;;;;;;1.30;1.30;;;10.10;99.90;;;;;;5056802;28;20049;-76
2023/03/19 05:27:35;;;;;;;1.27;1.27;;;10.10;99.90;;;;;;5076680;28;20154;-76
2023/03/19 05:30:00;;;;;;;1.20;1.20;;;10.10;99.90;;;;;;5058106;28;20063;-77
2023/03/19 05:32:27;;;;;;;1.27;1.27;;;10.10;99.90;;;;;;5072263;28;20044;-76
2023/03/19 05:34:53;;;;;;;1.30;1.30;;;10.10;99.90;;;;;;5079090;28;20433;-76
2023/03/19 05:37:18;;;;;;;1.30;1.30;;;10.10;99.90;;;;;;5073199;28;20066;-76
2023/03/19 05:39:44;;;;;;;1.20;1.20;;;10.10;99.90;;;;;;5075435;28;20049;-76
2023/03/19 05:42:11;;;;;;;1.35;1.35;;;10.20;99.90;;;;;;5056848;28;20085;-77
2023/03/19 05:44:36;;;;;;;1.20;1.20;;;10.20;99.90;;;;;;5059272;28;20059;-76
2023/03/19 05:47:02;;;;;;;1.20;1.20;;;10.20;99.90;;;;;;5080748;28;20039;-76
2023/03/19 05:49:28;;;;;;;1.15;1.15;;;10.20;99.90;;;;;;5074899;28;20401;-76
2023/03/19 05:51:54;;;;;;;1.10;1.10;;;10.20;99.90;;;;;;5074690;28;20041;-77
2023/03/19 05:54:20;;;;;;;1.20;1.20;;;10.20;99.90;;;;;;5076703;28;20420;-76
2023/03/19 05:56:45;;;;;;;1.15;1.15;;;10.20;99.90;;;;;;5076066;28;20115;-76
2023/03/19 05:59:11;;;;;;;1.15;1.15;;;10.20;99.90;;;;;;5074373;28;20040;-76
2023/03/19 06:01:37;;;;;;;1.10;1.10;;;10.20;99.90;;;;;;5071508;28;20039;-77
2023/03/19 06:04:02;;;;;;;1.10;1.10;;;10.20;99.90;;;;;;5078910;28;20098;-77
2023/03/19 06:06:28;;;;;;;1.20;1.20;;;10.20;99.90;;;;;;5077144;28;20640;-76
2023/03/19 06:08:54;;;;;;;1.20;1.20;;;10.20;99.90;;;;;;5076564;28;20047;-76
2023/03/19 06:11:20;;;;;;;1.10;1.10;;;10.20;99.90;;;;;;5075062;28;20052;-76
2023/03/19 06:13:46;;;;;;;1.13;1.13;;;10.30;99.90;;;;;;5074197;28;20459;-77
2023/03/19 06:16:11;;;;;;;1.10;1.10;;;10.30;99.90;;;;;;5058753;28;20538;-77
2023/03/19 06:18:37;;;;;;;1.02;1.02;;;10.40;99.90;;;;;;5060216;28;20076;-77
2023/03/19 06:21:03;;;;;;;1.10;1.10;;;10.40;99.90;;;;;;5073159;28;20807;-77
2023/03/19 06:23:29;;;;;;;1.05;1.05;;;10.40;99.90;;;;;;5077214;28;20178;-77
2023/03/19 06:25:55;;;;;;;1.05;1.05;;;10.50;99.90;;;;;;5058273;28;20044;-77
2023/03/19 06:28:21;;;;;;;1.05;1.05;;;10.50;99.90;;;;;;5074253;28;20045;-78
2023/03/19 06:30:46;;;;;;;1.08;1.08;;;10.50;99.90;;;;;;5073291;28;20049;-78
2023/03/19 06:33:13;;;;;;;1.02;1.02;;;10.60;99.90;;;;;;5075246;28;20420;-77
2023/03/19 06:35:39;;;;;;;1.10;1.10;;;10.60;99.90;;;;;;5077219;28;20048;-77
2023/03/19 06:38:06;;;;;;;1.10;1.10;;;10.70;99.90;;;;;;5077517;28;20055;-77
2023/03/19 06:40:32;;;;;;;1.10;1.10;;;10.70;99.90;;;;;;5073587;28;20036;-76
2023/03/19 06:42:58;;;;;;;1.10;1.10;;;10.70;99.90;;;;;;5055914;28;20044;-76
2023/03/19 06:45:24;;;;;;;1.05;1.05;;;10.70;99.90;;;;;;5058501;28;20058;-77
2023/03/19 06:47:50;;;;;;;1.00;1.00;;;10.80;99.90;;;;;;5076368;28;20082;-77
2023/03/19 06:50:16;;;;;;;1.00;1.00;;;10.70;99.90;;;;;;5075079;28;20044;-77
2023/03/19 06:52:43;;;;;;;1.10;1.10;;;10.90;99.90;;;;;;5069386;28;20044;-76
2023/03/19 06:55:11;;;;;;;1.00;1.00;;;10.90;99.90;;;;;;5076136;28;20122;-77
2023/03/19 06:57:37;;;;;;;1.08;1.08;;;10.90;99.90;;;;;;5075336;28;20055;-76
2023/03/19 07:00:04;;;;;;;1.02;1.02;;;11.00;99.90;;;;;;5074896;28;20117;-77
2023/03/19 07:02:30;;;;;;;0.93;0.93;;;11.10;99.90;;;;;;5071051;28;20094;-77
2023/03/19 07:04:56;;;;;;;0.93;0.93;;;11.20;99.90;;;;;;5054624;28;20072;-76
2023/03/19 07:07:22;;;;;;;0.90;0.90;;;11.30;99.90;;;;;;5073599;28;20446;-77
2023/03/19 07:09:47;;;;;;;0.93;0.93;;;11.40;99.90;;;;;;5072163;28;20056;-76
2023/03/19 07:12:13;;;;;;;1.00;1.00;;;11.30;99.90;;;;;;5073523;28;20055;-76
2023/03/19 07:14:39;;;;;;;0.90;0.90;;;11.20;99.90;;;;;;5055025;28;20048;-76
2023/03/19 07:17:05;;;;;;;1.00;1.00;;;11.20;99.90;;;;;;5055112;28;20056;-77
2023/03/19 07:19:31;;;;;;;0.90;0.90;;;11.20;99.90;;;;;;5073227;28;20551;-78
2023/03/19 07:21:56;;;;;;;0.90;0.90;;;11.20;99.90;;;;;;5072778;28;20460;-76
2023/03/19 07:24:22;;;;;;;1.00;1.00;;;11.20;99.90;;;;;;5054075;28;20115;-76
2023/03/19 07:26:48;;;;;;;0.95;0.95;;;11.20;99.90;;;;;;5072980;28;20040;-75
2023/03/19 07:29:13;;;;;;;0.98;0.98;;;11.20;99.90;;;;;;5073646;28;20054;-77
2023/03/19 07:31:39;;;;;;;0.90;0.90;;;11.30;99.90;;;;;;5075528;28;20189;-78
2023/03/19 07:34:05;;;;;;;0.90;0.90;;;11.40;99.90;;;;;;5075063;28;20133;-77
2023/03/19 07:36:31;;;;;;;0.90;0.90;;;11.50;99.90;;;;;;5071340;28;20146;-76
2023/03/19 07:38:57;;;;;;;0.90;0.90;;;11.60;99.90;;;;;;5058993;28;20938;-77
2023/03/19 07:41:23;;;;;;;0.90;0.90;;;11.60;99.90;;;;;;5066734;28;20508;-76
2023/03/19 07:43:49;;;;;;;0.80;0.80;;;11.50;99.90;;;;;;5056670;28;20434;-76
2023/03/19 07:46:15;;;;;;;0.90;0.90;;;11.70;99.90;;;;;;5055617;28;20167;-77
2023/03/19 07:48:40;;;;;;;0.88;0.88;;;11.70;99.90;;;;;;5073794;28;20123;-76
2023/03/19 07:51:06;;;;;;;0.90;0.90;;;11.60;99.90;;;;;;5055672;28;20048;-77
2023/03/19 07:53:32;;;;;;;0.90;0.90;;;11.80;99.90;;;;;;5075704;28;20078;-76
2023/03/19 07:55:58;;;;;;;0.82;0.82;;;11.80;99.90;;;;;;5078757;28;20070;-76
2023/03/19 07:58:25;;;;;;;0.88;0.88;;;11.90;99.90;;;;;;5077011;28;20040;-77
2023/03/19 08:00:51;;;;;;;0.88;0.88;;;12.00;99.90;;;;;;5075378;28;20048;-77
2023/03/19 08:03:17;;;;;;;0.80;0.80;;;12.10;99.90;;;;;;5075662;28;20041;-76
2023/03/19 08:05:43;;;;;;;0.80;0.80;;;12.10;99.90;;;;;;5079691;28;20386;-76
2023/03/19 08:08:08;;;;;;;0.80;0.80;;;12.20;99.90;;;;;;5080538;28;20648;-76
2023/03/19 08:10:34;;;;;;;0.80;0.80;;;12.10;99.90;;;;;;5075525;28;20036;-77
2023/03/19 08:13:00;;;;;;;0.70;0.70;;;12.20;99.90;;;;;;5073556;28;20052;-76
2023/03/19 08:15:26;;;;;;;0.80;0.80;;;12.30;99.90;;;;;;5077381;28;20074;-76
2023/03/19 08:17:59;;;;;;;0.80;0.80;;;12.20;99.90;;;;;;5077246;28;20051;-78
2023/03/19 08:20:25;;;;;;;0.80;0.80;;;12.30;99.90;;;;;;5074960;28;20040;-78
2023/03/19 08:22:50;;;;;;;0.80;0.80;;;12.30;99.90;;;;;;5060430;28;20680;-78
2023/03/19 08:25:16;;;;;;;0.80;0.80;;;12.30;99.90;;;;;;5059834;28;20519;-77
2023/03/19 08:27:42;;;;;;;0.80;0.80;;;12.40;99.90;;;;;;5078033;28;20046;-76
2023/03/19 08:30:09;;;;;;;0.80;0.80;;;12.40;99.90;;;;;;5074180;28;20038;-76
2023/03/19 08:32:36;;;;;;;0.70;0.70;;;12.70;99.90;;;;;;5073441;28;20044;-76
2023/03/19 08:35:02;;;;;;;0.77;0.77;;;12.60;99.90;;;;;;5080493;28;20052;-77
2023/03/19 08:37:28;;;;;;;0.70;0.70;;;12.70;99.90;;;;;;5075063;28;20733;-77
2023/03/19 08:39:54;;;;;;;0.70;0.70;;;12.60;99.90;;;;;;5077234;28;20056;-77
2023/03/19 08:42:21;;;;;;;0.70;0.70;;;12.60;99.90;;;;;;5057819;28;20119;-77
2023/03/19 08:44:47;;;;;;;0.70;0.70;;;12.70;99.90;;;;;;5076934;28;20469;-76
2023/03/19 08:47:13;;;;;;;0.75;0.75;;;12.70;99.90;;;;;;5062349;28;20036;-77
2023/03/19 08:49:39;;;;;;;0.70;0.70;;;12.60;99.90;;;;;;5052452;28;20109;-77
2023/03/19 08:52:06;;;;;;;0.70;0.70;;;12.60;99.90;;;;;;5031794;28;20427;-75
2023/03/19 08:54:32;;;;;;;0.70;0.70;;;12.50;99.90;;;;;;5054117;28;20598;-77
2023/03/19 08:56:59;;;;;;;0.70;0.70;;;12.50;99.90;;;;;;5063562;28;20687;-77
2023/03/19 08:59:26;;;;;;;0.70;0.70;;;12.40;99.90;;;;;;5060227;28;20060;-76
2023/03/19 09:01:52;;;;;;;0.70;0.70;;;12.50;99.90;;;;;;5054152;28;20074;-76
2023/03/19 09:04:19;;;;;;;0.70;0.70;;;12.70;99.90;;;;;;5056457;28;20063;-77
2023/03/19 09:06:49;;;;;;;0.65;0.65;;;12.80;99.90;;;;;;5043366;28;20052;-77
2023/03/19 09:09:15;;;;;;;0.60;0.60;;;13.00;99.90;;;;;;5053868;28;20114;-76
2023/03/19 09:11:41;;;;;;;0.60;0.60;;;13.10;99.90;;;;;;5058555;28;20056;-76
2023/03/19 09:14:07;;;;;;;0.60;0.60;;;13.10;99.90;;;;;;5076692;28;20569;-76
2023/03/19 09:16:32;;;;;;;0.60;0.60;;;13.10;99.90;;;;;;5076892;28;20043;-77
2023/03/19 09:18:58;;;;;;;0.60;0.60;;;13.20;99.90;;;;;;5077417;28;20040;-76
2023/03/19 09:21:24;;;;;;;0.60;0.60;;;13.10;99.90;;;;;;5055042;28;20050;-77
2023/03/19 09:23:51;;;;;;;0.60;0.60;;;13.00;99.90;;;;;;5057859;28;20127;-76
2023/03/19 09:26:17;;;;;;;0.60;0.60;;;12.90;99.90;;;;;;5058567;28;20500;-75
2023/03/19 09:28:43;;;;;;;0.65;0.65;;;13.20;99.90;;;;;;5053386;28;20044;-77
2023/03/19 09:31:10;;;;;;;0.60;0.60;;;13.30;99.90;;;;;;5072251;28;20644;-77
2023/03/19 09:33:36;;;;;;;0.60;0.60;;;13.20;99.90;;;;;;5075777;28;20127;-76
2023/03/19 09:36:02;;;;;;;0.60;0.60;;;13.20;99.90;;;;;;5074863;28;20039;-77
2023/03/19 09:38:28;;;;;;;0.60;0.60;;;13.10;99.90;;;;;;5073635;28;20051;-77
2023/03/19 09:41:23;;;;;;;0.63;0.63;;;13.10;99.90;;;;;;5037148;28;20051;-77
2023/03/19 09:43:57;;;;;;;0.60;0.60;;;13.20;99.90;;;;;;5067069;28;20075;-76
2023/03/19 09:46:31;;;;;;;0.60;0.60;;;13.20;99.90;;;;;;5072296;28;20044;-76
2023/03/19 09:49:00;;;;;;;;;;;13.20;99.90;;;;;;5074222;28;20540;-76
2023/03/19 09:51:51;;;;;;;0.70;0.70;;;13.20;99.90;;;;;;5070641;28;19978;-77
2023/03/19 09:54:41;;;;;;;0.60;0.60;;;13.20;99.90;;;;;;5069730;28;20117;-76
2023/03/19 09:57:09;;;;;;;0.60;0.60;;;13.60;99.90;;;;;;5067731;28;20052;-78
2023/03/19 09:59:34;;;;;;;0.52;0.52;;;14.10;99.90;;;;;;5059581;28;20080;-76
2023/03/19 10:02:09;;;;;;;0.60;0.60;;;14.10;99.90;;;;;;5066575;28;20534;-76
2023/03/19 10:04:41;;;;;;;0.60;0.60;;;14.10;99.90;;;;;;5051711;28;20044;-77
2023/03/19 10:07:13;;;;;;;0.50;0.50;;;14.00;99.90;;;;;;5068242;28;20060;-76
2023/03/19 10:10:13;;;;;;;0.60;0.60;;;14.00;99.90;;;;;;5067896;28;20040;-77
2023/03/19 10:13:02;;;;;;;0.60;0.60;;;14.20;99.90;;;;;;5043959;28;20549;-76
2023/03/19 10:15:30;;;;;;;0.60;0.60;;;14.40;99.90;;;;;;5064692;28;20517;-76
2023/03/19 10:18:20;;;;;;;0.60;0.60;;;14.30;99.90;;;;;;5045187;28;20056;-77
2023/03/19 10:20:55;;;;;;;0.60;0.60;;;14.30;99.90;;;;;;5049457;28;20577;-76
2023/03/19 10:23:24;;;;;;;0.60;0.60;;;14.10;99.90;;;;;;5049689;28;20106;-77
2023/03/19 10:25:56;;;;;;;0.60;0.60;;;14.20;99.90;;;;;;5054590;28;20052;-76
2023/03/19 10:28:25;;;;;;;0.60;0.60;;;14.10;99.90;;;;;;5053730;28;20558;-76
2023/03/19 10:31:23;;;;;;;0.60;0.60;;;14.30;99.90;;;;;;5048819;28;20117;-76
2023/03/19 10:34:10;;;;;;;0.60;0.60;;;14.30;99.90;;;;;;5057535;28;20055;-77
2023/03/19 10:36:37;;;;;;;0.60;0.60;;;14.50;99.90;;;;;;5057688;28;20126;-76
2023/03/19 10:39:06;;;;;;;0.60;0.60;;;14.50;99.90;;;;;;5066391;28;20398;-77
2023/03/19 10:41:37;;;;;;;0.60;0.60;;;14.50;99.90;;;;;;5060034;28;20072;-77
2023/03/19 10:44:10;;;;;;;0.50;0.50;;;14.60;99.90;;;;;;5047691;28;20083;-77
2023/03/19 10:46:37;;;;;;;0.60;0.60;;;14.70;99.90;;;;;;5064643;28;20107;-74
2023/03/19 10:49:03;;;;;;;0.60;0.60;;;14.70;99.90;;;;;;5054965;28;20079;-76
2023/03/19 10:51:30;;;;;;;0.60;0.60;;;14.70;99.90;;;;;;5070452;28;20085;-77
2023/03/19 10:53:59;;;;;;;0.57;0.57;;;14.70;99.90;;;;;;5055220;28;20074;-77
2023/03/19 10:56:30;;;;;;;0.60;0.60;;;14.70;99.90;;;;;;5074903;28;20079;-77
2023/03/19 10:59:05;;;;;;;0.60;0.60;;;14.70;99.90;;;;;;5055660;28;20541;-76
2023/03/19 11:01:37;;;;;;;0.52;0.52;;;14.70;99.90;;;;;;5069896;28;20052;-77
2023/03/19 11:04:32;;;;;;;0.50;0.50;;;14.90;99.90;;;;;;5074174;28;20048;-77
2023/03/19 11:07:13;;;;;;;0.50;0.50;;;15.30;99.90;;;;;;5025840;28;20107;-76
2023/03/19 11:09:48;;;;;;;0.50;0.50;;;15.90;99.90;;;;;;5053574;28;20043;-77
2023/03/19 11:12:26;;;;;;;0.50;0.50;;;16.20;99.90;;;;;;5074339;28;20044;-76
2023/03/19 11:14:55;;;;;;;0.50;0.50;;;16.50;99.90;;;;;;5074805;28;20098;-77
2023/03/19 11:17:37;;;;;;;0.50;0.50;;;16.20;99.90;;;;;;5073597;28;20048;-77
2023/03/19 11:20:18;;;;;;;0.50;0.50;;;16.10;99.90;;;;;;5073192;28;20071;-77
2023/03/19 11:22:44;;;;;;;0.50;0.50;;;16.60;99.90;;;;;;5074537;28;20719;-77
2023/03/19 11:25:17;;;;;;;0.50;0.50;;;17.10;99.90;;;;;;5054497;28;20413;-77
2023/03/19 11:27:44;;;;;;;0.50;0.50;;;17.50;99.90;;;;;;5075448;28;20524;-77
2023/03/19 11:30:17;;;;;;;0.50;0.50;;;17.30;99.90;;;;;;5076928;28;20094;-77
2023/03/19 11:33:00;;;;;;;;;;;16.90;99.90;;;;;;5077974;28;20047;-77
2023/03/19 11:35:37;;;;;;;0.60;0.60;;;16.30;99.90;;;;;;5057755;28;19924;-77
2023/03/19 11:38:03;;;;;;;0.60;0.60;;;17.00;99.90;;;;;;5077501;28;20088;-77
2023/03/19 11:40:43;;;;;;;0.50;0.50;;;17.10;99.90;;;;;;5058853;28;20511;-77
2023/03/19 11:43:47;;;;;;;0.60;0.60;;;17.40;99.90;;;;;;5057211;28;20105;-77
2023/03/19 11:46:53;;;;;;;0.60;0.60;;;17.60;99.90;;;;;;5063291;28;20090;-77
2023/03/19 11:49:46;;;;;;;0.50;0.50;;;17.40;99.90;;;;;;5055417;28;20505;-76
2023/03/19 11:52:12;;;;;;;0.50;0.50;;;17.40;99.90;;;;;;5078692;28;20093;-76
2023/03/19 11:55:11;;;;;;;0.50;0.50;;;16.80;99.90;;;;;;5070003;28;20035;-75
2023/03/19 11:57:56;;;;;;;0.50;0.50;;;16.60;99.90;;;;;;5058715;28;20548;-75
2023/03/19 12:00:51;;;;;;;0.50;0.50;;;16.20;99.90;;;;;;5076831;28;20105;-77
2023/03/19 12:03:36;;;;;;;0.50;0.50;;;16.40;99.90;;;;;;5077147;28;20213;-76
2023/03/19 12:06:20;;;;;;;0.50;0.50;;;16.30;99.90;;;;;;5079559;28;20505;-76
2023/03/19 12:08:46;;;;;;;;;;;16.10;99.90;;;;;;5061316;28;20048;-74
2023/03/19 12:11:21;;;;;;;0.60;0.60;;;16.00;99.90;;;;;;5075714;28;19930;-76
2023/03/19 12:14:10;;;;;;;0.50;0.50;;;15.80;99.90;;;;;;5056354;28;20094;-75
2023/03/19 12:16:43;;;;;;;0.57;0.57;;;16.20;99.90;;;;;;5077656;28;20123;-76
2023/03/19 12:19:17;;;;;;;0.60;0.60;;;16.70;99.90;;;;;;5076784;28;20044;-76
2023/03/19 12:22:03;;;;;;;0.50;0.50;;;16.80;99.90;;;;;;5076060;28;20071;-76
2023/03/19 12:24:39;;;;;;;0.55;0.55;;;17.20;99.90;;;;;;5076266;28;20040;-76
2023/03/19 12:27:07;;;;;;;0.60;0.60;;;17.30;99.90;;;;;;5075638;28;20051;-75
2023/03/19 12:29:53;;;;;;;0.60;0.60;;;17.60;99.90;;;;;;5074669;28;20087;-76
2023/03/19 12:32:45;;;;;;;0.50;0.50;;;17.10;99.90;;;;;;5059814;28;20043;-76
2023/03/19 12:35:16;;;;;;;0.50;0.50;;;17.20;99.90;;;;;;5078646;28;20047;-76
2023/03/19 12:37:56;;;;;;;0.52;0.52;;;17.00;99.90;;;;;;5062083;28;20040;-76
2023/03/19 12:40:32;;;;;;;0.55;0.55;;;16.90;99.90;;;;;;5076485;28;20051;-76
2023/03/19 12:43:03;;;;;;;0.50;0.50;;;17.00;99.90;;;;;;5074477;28;20039;-76
2023/03/19 12:45:31;;;;;;;0.60;0.60;;;16.90;99.90;;;;;;5079605;28;20493;-76
2023/03/19 12:48:07;;;;;;;0.60;0.60;;;17.20;99.90;;;;;;5078392;28;20087;-76
2023/03/19 12:50:37;;;;;;;0.60;0.60;;;17.20;99.90;;;;;;5073962;28;20550;-76
2023/03/19 12:53:07;;;;;;;0.50;0.50;;;17.10;99.90;;;;;;5076452;28;20048;-76
2023/03/19 12:55:40;;;;;;;0.52;0.52;;;17.60;99.90;;;;;;5074356;28;20047;-76
2023/03/19 12:58:13;;;;;;;0.60;0.60;;;17.80;99.90;;;;;;5075024;28;20576;-76